sensor_id;sensor_type;location;lat;lon;timestamp;pressure;altitude;pressure_sealevel;temperature;humidity
56392;BME280;42289;53.582;9.714;2022-10-10T00:00:47;101178.31;;;9.14;100.00
56392;BME280;42289;53.582;9.714;2022-10-10T00:03:14;101173.91;;;9.18;100.00
56392;BME280;42289;53.582;9.714;2022-10-10T00:05:42;101172.16;;;9.18;100.00
56392;BME280;42289;53.582;9.714;2022-10-10T00:08:09;101175.81;;;9.11;100.00
56392;BME280;42289;53.582;9.714;2022-10-10T00:10:36;101174.06;;;9.12;100.00
56392;BME280;42289;53.582;9.714;2022-10-10T00:13:04;101166.28;;;9.12;100.00
56392;BME280;42289;53.582;9.714;2022-10-10T00:15:30;101160.59;;;8.97;100.00
56392;BME280;42289;53.582;9.714;2022-10-10T00:17:57;101158.72;;;9.02;100.00
56392;BME280;42289;53.582;9.714;2022-10-10T00:20:23;101149.19;;;9.04;100.00
56392;BME280;42289;53.582;9.714;2022-10-10T00:22:51;101144.00;;;9.03;100.00
56392;BME280;42289;53.582;9.714;2022-10-10T00:25:17;101149.34;;;8.98;100.00
56392;BME280;42289;53.582;9.714;2022-10-10T00:27:44;101142.44;;;8.97;100.00
56392;BME280;42289;53.582;9.714;2022-10-10T00:30:11;101139.84;;;8.97;100.00
56392;BME280;42289;53.582;9.714;2022-10-10T00:32:37;101148.59;;;8.93;100.00
56392;BME280;42289;53.582;9.714;2022-10-10T00:35:04;101139.22;;;8.89;100.00
56392;BME280;42289;53.582;9.714;2022-10-10T00:37:31;101141.94;;;8.84;100.00
56392;BME280;42289;53.582;9.714;2022-10-10T00:39:59;101140.97;;;8.88;100.00
56392;BME280;42289;53.582;9.714;2022-10-10T00:42:27;101141.19;;;8.79;100.00
56392;BME280;42289;53.582;9.714;2022-10-10T00:45:19;101134.41;;;8.75;100.00
56392;BME280;42289;53.582;9.714;2022-10-10T00:47:47;101136.13;;;8.74;100.00
56392;BME280;42289;53.582;9.714;2022-10-10T00:50:15;101130.78;;;8.81;100.00
56392;BME280;42289;53.582;9.714;2022-10-10T00:52:42;101120.56;;;8.74;100.00
56392;BME280;42289;53.582;9.714;2022-10-10T00:55:10;101118.88;;;8.73;100.00
56392;BME280;42289;53.582;9.714;2022-10-10T00:57:37;101115.50;;;8.70;100.00
56392;BME280;42289;53.582;9.714;2022-10-10T01:00:04;101113.06;;;8.64;100.00
56392;BME280;42289;53.582;9.714;2022-10-10T01:02:31;101115.56;;;8.68;100.00
56392;BME280;42289;53.582;9.714;2022-10-10T01:04:57;101109.91;;;8.52;100.00
56392;BME280;42289;53.582;9.714;2022-10-10T01:07:25;101105.66;;;8.50;100.00
56392;BME280;42289;53.582;9.714;2022-10-10T01:09:56;101110.00;;;8.49;100.00
56392;BME280;42289;53.582;9.714;2022-10-10T01:12:31;101101.25;;;8.53;100.00
56392;BME280;42289;53.582;9.714;2022-10-10T01:15:07;101102.13;;;8.52;100.00
56392;BME280;42289;53.582;9.714;2022-10-10T01:17:42;101094.38;;;8.52;100.00
56392;BME280;42289;53.582;9.714;2022-10-10T01:23:11;101101.44;;;8.46;100.00
56392;BME280;42289;53.582;9.714;2022-10-10T01:25:50;101093.81;;;8.38;100.00
56392;BME280;42289;53.582;9.714;2022-10-10T01:28:29;101092.25;;;8.32;100.00
56392;BME280;42289;53.582;9.714;2022-10-10T01:31:02;101090.63;;;8.28;100.00
56392;BME280;42289;53.582;9.714;2022-10-10T01:33:34;101082.75;;;8.33;100.00
56392;BME280;42289;53.582;9.714;2022-10-10T01:36:10;101086.13;;;8.35;100.00
56392;BME280;42289;53.582;9.714;2022-10-10T01:38:45;101077.44;;;8.37;100.00
56392;BME280;42289;53.582;9.714;2022-10-10T01:41:19;101078.50;;;8.29;100.00
56392;BME280;42289;53.582;9.714;2022-10-10T01:43:52;101073.38;;;8.27;100.00
56392;BME280;42289;53.582;9.714;2022-10-10T01:46:19;101075.06;;;8.28;100.00
56392;BME280;42289;53.582;9.714;2022-10-10T01:48:47;101076.03;;;8.24;100.00
56392;BME280;42289;53.582;9.714;2022-10-10T01:51:26;101076.22;;;8.16;100.00
56392;BME280;42289;53.582;9.714;2022-10-10T01:54:00;101073.69;;;8.15;100.00
56392;BME280;42289;53.582;9.714;2022-10-10T01:56:39;101071.16;;;8.12;100.00
56392;BME280;42289;53.582;9.714;2022-10-10T01:59:18;101069.41;;;8.12;100.00
56392;BME280;42289;53.582;9.714;2022-10-10T02:01:53;101064.38;;;8.07;100.00
56392;BME280;42289;53.582;9.714;2022-10-10T02:04:29;101062.69;;;8.05;100.00
56392;BME280;42289;53.582;9.714;2022-10-10T02:07:01;101062.75;;;8.03;100.00
56392;BME280;42289;53.582;9.714;2022-10-10T02:09:38;101066.09;;;8.07;100.00
56392;BME280;42289;53.582;9.714;2022-10-10T02:12:06;101062.69;;;8.05;100.00
56392;BME280;42289;53.582;9.714;2022-10-10T02:14:39;101066.13;;;8.05;100.00
56392;BME280;42289;53.582;9.714;2022-10-10T02:17:09;101061.69;;;8.11;100.00
56392;BME280;42289;53.582;9.714;2022-10-10T02:19:37;101063.63;;;8.02;100.00
56392;BME280;42289;53.582;9.714;2022-10-10T02:22:04;101067.03;;;8.04;100.00
56392;BME280;42289;53.582;9.714;2022-10-10T02:24:31;101063.69;;;7.99;100.00
56392;BME280;42289;53.582;9.714;2022-10-10T02:27:01;101050.81;;;7.98;100.00
56392;BME280;42289;53.582;9.714;2022-10-10T02:29:32;101056.72;;;8.01;100.00
56392;BME280;42289;53.582;9.714;2022-10-10T02:32:02;101045.53;;;8.01;100.00
56392;BME280;42289;53.582;9.714;2022-10-10T02:34:32;101046.41;;;8.00;100.00
56392;BME280;42289;53.582;9.714;2022-10-10T02:37:03;101039.75;;;7.91;100.00
56392;BME280;42289;53.582;9.714;2022-10-10T02:39:35;101044.06;;;7.90;100.00
56392;BME280;42289;53.582;9.714;2022-10-10T02:42:02;101032.94;;;7.87;100.00
56392;BME280;42289;53.582;9.714;2022-10-10T02:44:30;101029.31;;;7.94;100.00
56392;BME280;42289;53.582;9.714;2022-10-10T02:46:57;101024.97;;;7.95;100.00
56392;BME280;42289;53.582;9.714;2022-10-10T02:49:27;101026.59;;;7.99;100.00
56392;BME280;42289;53.582;9.714;2022-10-10T02:51:55;101012.94;;;7.94;100.00
56392;BME280;42289;53.582;9.714;2022-10-10T02:54:21;101016.31;;;7.96;100.00
56392;BME280;42289;53.582;9.714;2022-10-10T02:56:48;101012.66;;;8.04;100.00
56392;BME280;42289;53.582;9.714;2022-10-10T02:59:14;101007.59;;;8.00;100.00
56392;BME280;42289;53.582;9.714;2022-10-10T03:01:41;101008.44;;;8.00;100.00
56392;BME280;42289;53.582;9.714;2022-10-10T03:04:07;101011.81;;;8.04;100.00
56392;BME280;42289;53.582;9.714;2022-10-10T03:06:35;101008.50;;;7.97;100.00
56392;BME280;42289;53.582;9.714;2022-10-10T03:09:02;101004.34;;;7.91;100.00
56392;BME280;42289;53.582;9.714;2022-10-10T03:11:28;101000.00;;;7.92;100.00
56392;BME280;42289;53.582;9.714;2022-10-10T03:13:55;101003.50;;;7.89;100.00
56392;BME280;42289;53.582;9.714;2022-10-10T03:16:21;100996.31;;;8.02;100.00
56392;BME280;42289;53.582;9.714;2022-10-10T03:18:48;100984.19;;;8.04;100.00
56392;BME280;42289;53.582;9.714;2022-10-10T03:21:14;100984.28;;;8.00;100.00
56392;BME280;42289;53.582;9.714;2022-10-10T03:23:42;100984.47;;;7.92;100.00
56392;BME280;42289;53.582;9.714;2022-10-10T03:26:08;100986.53;;;7.79;100.00
56392;BME280;42289;53.582;9.714;2022-10-10T03:28:35;100991.66;;;7.81;100.00
56392;BME280;42289;53.582;9.714;2022-10-10T03:31:02;100996.72;;;7.85;100.00
56392;BME280;42289;53.582;9.714;2022-10-10T03:33:28;100995.31;;;7.72;100.00
56392;BME280;42289;53.582;9.714;2022-10-10T03:35:55;101000.56;;;7.69;100.00
56392;BME280;42289;53.582;9.714;2022-10-10T03:38:21;101003.84;;;7.75;100.00
56392;BME280;42289;53.582;9.714;2022-10-10T03:40:49;100997.97;;;7.69;100.00
56392;BME280;42289;53.582;9.714;2022-10-10T03:43:15;100998.91;;;7.66;100.00
56392;BME280;42289;53.582;9.714;2022-10-10T03:45:43;100998.97;;;7.63;100.00
56392;BME280;42289;53.582;9.714;2022-10-10T03:48:10;101011.16;;;7.58;100.00
56392;BME280;42289;53.582;9.714;2022-10-10T03:50:37;101010.22;;;7.62;100.00
56392;BME280;42289;53.582;9.714;2022-10-10T03:53:04;101014.38;;;7.68;100.00
56392;BME280;42289;53.582;9.714;2022-10-10T03:55:30;101016.22;;;7.64;100.00
56392;BME280;42289;53.582;9.714;2022-10-10T03:57:58;101003.84;;;7.75;100.00
56392;BME280;42289;53.582;9.714;2022-10-10T04:00:25;101004.75;;;7.74;100.00
56392;BME280;42289;53.582;9.714;2022-10-10T04:02:51;100991.88;;;7.71;100.00
56392;BME280;42289;53.582;9.714;2022-10-10T04:05:18;100995.34;;;7.70;100.00
56392;BME280;42289;53.582;9.714;2022-10-10T04:07:44;100997.44;;;7.56;100.00
56392;BME280;42289;53.582;9.714;2022-10-10T04:10:11;101011.25;;;7.55;100.00
56392;BME280;42289;53.582;9.714;2022-10-10T04:12:37;101023.97;;;7.64;100.00
56392;BME280;42289;53.582;9.714;2022-10-10T04:15:06;101023.31;;;7.56;100.00
56392;BME280;42289;53.582;9.714;2022-10-10T04:17:32;101011.31;;;7.52;100.00
56392;BME280;42289;53.582;9.714;2022-10-10T04:19:58;101013.75;;;7.58;100.00
56392;BME280;42289;53.582;9.714;2022-10-10T04:22:25;101008.53;;;7.60;100.00
56392;BME280;42289;53.582;9.714;2022-10-10T04:24:51;101007.41;;;7.71;100.00
56392;BME280;42289;53.582;9.714;2022-10-10T04:27:18;100992.22;;;7.57;100.00
56392;BME280;42289;53.582;9.714;2022-10-10T04:29:44;100993.94;;;7.57;100.00
56392;BME280;42289;53.582;9.714;2022-10-10T04:32:12;100991.38;;;7.55;100.00
56392;BME280;42289;53.582;9.714;2022-10-10T04:34:38;100991.44;;;7.54;100.00
56392;BME280;42289;53.582;9.714;2022-10-10T04:37:04;100986.41;;;7.48;100.00
56392;BME280;42289;53.582;9.714;2022-10-10T04:39:31;100992.25;;;7.56;100.00
56392;BME280;42289;53.582;9.714;2022-10-10T04:41:57;100989.91;;;7.45;100.00
56392;BME280;42289;53.582;9.714;2022-10-10T04:44:24;101010.53;;;7.48;100.00
56392;BME280;42289;53.582;9.714;2022-10-10T04:46:50;101006.34;;;7.43;100.00
56392;BME280;42289;53.582;9.714;2022-10-10T04:49:18;100998.47;;;7.47;100.00
56392;BME280;42289;53.582;9.714;2022-10-10T04:51:44;100999.41;;;7.45;100.00
56392;BME280;42289;53.582;9.714;2022-10-10T04:54:11;101014.06;;;7.44;100.00
56392;BME280;42289;53.582;9.714;2022-10-10T04:56:37;101007.06;;;7.49;100.00
56392;BME280;42289;53.582;9.714;2022-10-10T04:59:06;101001.09;;;7.46;100.00
56392;BME280;42289;53.582;9.714;2022-10-10T05:01:33;101001.19;;;7.43;100.00
56392;BME280;42289;53.582;9.714;2022-10-10T05:03:59;101001.06;;;7.47;100.00
56392;BME280;42289;53.582;9.714;2022-10-10T05:06:27;101012.31;;;7.45;100.00
56392;BME280;42289;53.582;9.714;2022-10-10T05:08:54;101005.31;;;7.50;100.00
56392;BME280;42289;53.582;9.714;2022-10-10T05:11:20;101005.41;;;7.47;100.00
56392;BME280;42289;53.582;9.714;2022-10-10T05:13:46;100993.38;;;7.44;100.00
56392;BME280;42289;53.582;9.714;2022-10-10T05:16:14;100994.31;;;7.41;100.00
56392;BME280;42289;53.582;9.714;2022-10-10T05:18:40;100997.00;;;7.37;100.00
56392;BME280;42289;53.582;9.714;2022-10-10T05:21:07;100992.66;;;7.37;100.00
56392;BME280;42289;53.582;9.714;2022-10-10T05:23:37;100992.59;;;7.40;100.00
56392;BME280;42289;53.582;9.714;2022-10-10T05:26:05;100986.66;;;7.37;100.00
56392;BME280;42289;53.582;9.714;2022-10-10T05:28:32;100988.41;;;7.35;100.00
56392;BME280;42289;53.582;9.714;2022-10-10T05:31:00;100981.50;;;7.35;100.00
56392;BME280;42289;53.582;9.714;2022-10-10T05:33:27;100992.78;;;7.31;100.00
56392;BME280;42289;53.582;9.714;2022-10-10T05:36:00;100992.75;;;7.34;100.00
56392;BME280;42289;53.582;9.714;2022-10-10T05:38:27;100995.41;;;7.30;100.00
56392;BME280;42289;53.582;9.714;2022-10-10T05:40:55;101003.09;;;7.33;100.00
56392;BME280;42289;53.582;9.714;2022-10-10T05:43:21;100997.00;;;7.37;100.00
56392;BME280;42289;53.582;9.714;2022-10-10T05:45:48;100986.66;;;7.37;100.00
56392;BME280;42289;53.582;9.714;2022-10-10T05:48:14;100991.72;;;7.41;100.00
56392;BME280;42289;53.582;9.714;2022-10-10T05:50:45;100989.00;;;7.46;100.00
56392;BME280;42289;53.582;9.714;2022-10-10T05:53:12;100986.53;;;7.41;100.00
56392;BME280;42289;53.582;9.714;2022-10-10T05:55:39;100976.94;;;7.47;100.00
56392;BME280;42289;53.582;9.714;2022-10-10T05:58:07;100969.22;;;7.44;100.00
56392;BME280;42289;53.582;9.714;2022-10-10T06:00:33;100971.81;;;7.44;100.00
56392;BME280;42289;53.582;9.714;2022-10-10T06:03:00;100962.22;;;7.49;100.00
56392;BME280;42289;53.582;9.714;2022-10-10T06:05:27;100959.75;;;7.44;100.00
56392;BME280;42289;53.582;9.714;2022-10-10T06:07:54;100957.81;;;7.54;100.00
56392;BME280;42289;53.582;9.714;2022-10-10T06:10:20;100963.19;;;7.45;100.00
56392;BME280;42289;53.582;9.714;2022-10-10T06:12:47;100962.31;;;7.46;100.00
56392;BME280;42289;53.582;9.714;2022-10-10T06:15:15;100939.72;;;7.52;100.00
56392;BME280;42289;53.582;9.714;2022-10-10T06:17:41;100942.28;;;7.54;100.00
56392;BME280;42289;53.582;9.714;2022-10-10T06:20:08;100951.38;;;7.70;100.00
56392;BME280;42289;53.582;9.714;2022-10-10T06:22:35;100928.19;;;7.66;100.00
56392;BME280;42289;53.582;9.714;2022-10-10T06:25:01;100929.81;;;7.70;100.00
56392;BME280;42289;53.582;9.714;2022-10-10T06:27:27;100922.09;;;7.68;100.00
56392;BME280;42289;53.582;9.714;2022-10-10T06:29:54;100934.03;;;7.74;100.00
56392;BME280;42289;53.582;9.714;2022-10-10T06:32:21;100924.25;;;7.85;100.00
56392;BME280;42289;53.582;9.714;2022-10-10T06:34:48;100920.13;;;7.78;100.00
56392;BME280;42289;53.582;9.714;2022-10-10T06:37:14;100900.94;;;7.87;100.00
56392;BME280;42289;53.582;9.714;2022-10-10T06:39:41;100890.69;;;7.82;100.00
56392;BME280;42289;53.582;9.714;2022-10-10T06:42:07;100889.91;;;7.80;100.00
56392;BME280;42289;53.582;9.714;2022-10-10T06:44:33;100882.66;;;7.93;100.00
56392;BME280;42289;53.582;9.714;2022-10-10T06:47:00;100873.94;;;7.96;100.00
56392;BME280;42289;53.582;9.714;2022-10-10T06:49:28;100862.75;;;7.95;100.00
56392;BME280;42289;53.582;9.714;2022-10-10T06:51:54;100866.72;;;8.07;100.00
56392;BME280;42289;53.582;9.714;2022-10-10T06:54:20;100852.06;;;8.07;100.00
56392;BME280;42289;53.582;9.714;2022-10-10T06:56:47;100841.56;;;8.12;100.00
56392;BME280;42289;53.582;9.714;2022-10-10T06:59:13;100831.97;;;8.16;100.00
56392;BME280;42289;53.582;9.714;2022-10-10T07:01:42;100825.88;;;8.18;100.00
56392;BME280;42289;53.582;9.714;2022-10-10T07:04:10;100820.47;;;8.26;100.00
56392;BME280;42289;53.582;9.714;2022-10-10T07:06:38;100822.09;;;8.29;100.00
56392;BME280;42289;53.582;9.714;2022-10-10T07:09:05;100816.75;;;8.35;100.00
56392;BME280;42289;53.582;9.714;2022-10-10T07:11:31;100809.75;;;8.38;100.00
56392;BME280;42289;53.582;9.714;2022-10-10T07:13:58;100807.91;;;8.42;100.00
56392;BME280;42289;53.582;9.714;2022-10-10T07:16:24;100805.28;;;8.44;100.00
56392;BME280;42289;53.582;9.714;2022-10-10T07:18:50;100804.34;;;8.48;100.00
56392;BME280;42289;53.582;9.714;2022-10-10T07:21:17;100792.03;;;8.54;100.00
56392;BME280;42289;53.582;9.714;2022-10-10T07:23:45;100800.66;;;8.55;100.00
56392;BME280;42289;53.582;9.714;2022-10-10T07:26:13;100790.78;;;8.66;100.00
56392;BME280;42289;53.582;9.714;2022-10-10T07:28:40;100787.84;;;8.79;100.00
56392;BME280;42289;53.582;9.714;2022-10-10T07:31:09;100794.91;;;8.73;100.00
56392;BME280;42289;53.582;9.714;2022-10-10T07:33:37;100792.16;;;8.78;100.00
56392;BME280;42289;53.582;9.714;2022-10-10T07:36:05;100793.75;;;8.82;100.00
56392;BME280;42289;53.582;9.714;2022-10-10T07:38:31;100796.91;;;8.92;100.00
56392;BME280;42289;53.582;9.714;2022-10-10T07:40:59;100796.47;;;9.06;100.00
56392;BME280;42289;53.582;9.714;2022-10-10T07:43:26;100798.19;;;9.07;100.00
56392;BME280;42289;53.582;9.714;2022-10-10T07:45:52;100795.22;;;9.18;100.00
56392;BME280;42289;53.582;9.714;2022-10-10T07:48:18;100796.75;;;9.23;100.00
56392;BME280;42289;53.582;9.714;2022-10-10T07:50:45;100801.69;;;9.31;100.00
56392;BME280;42289;53.582;9.714;2022-10-10T07:53:11;100804.19;;;9.34;100.00
56392;BME280;42289;53.582;9.714;2022-10-10T07:55:38;100806.56;;;9.40;100.00
56392;BME280;42289;53.582;9.714;2022-10-10T07:58:06;100806.41;;;9.45;100.00
56392;BME280;42289;53.582;9.714;2022-10-10T08:00:34;100808.66;;;9.56;100.00
56392;BME280;42289;53.582;9.714;2022-10-10T08:03:01;100808.47;;;9.60;100.00
56392;BME280;42289;53.582;9.714;2022-10-10T08:05:28;100804.81;;;9.66;100.00
56392;BME280;42289;53.582;9.714;2022-10-10T08:07:54;100801.81;;;9.79;100.00
56392;BME280;42289;53.582;9.714;2022-10-10T08:10:21;100819.88;;;9.82;100.00
56392;BME280;42289;53.582;9.714;2022-10-10T08:12:47;100806.88;;;9.82;100.00
56392;BME280;42289;53.582;9.714;2022-10-10T08:15:15;100803.16;;;9.89;100.00
56392;BME280;42289;53.582;9.714;2022-10-10T08:17:41;100811.19;;;10.06;100.00
56392;BME280;42289;53.582;9.714;2022-10-10T08:20:08;100803.06;;;10.16;100.00
56392;BME280;42289;53.582;9.714;2022-10-10T08:22:35;100817.50;;;10.23;100.00
56392;BME280;42289;53.582;9.714;2022-10-10T08:25:01;100803.16;;;10.38;100.00
56392;BME280;42289;53.582;9.714;2022-10-10T08:27:28;100808.97;;;10.43;100.00
56392;BME280;42289;53.582;9.714;2022-10-10T08:29:54;100809.53;;;10.51;100.00
56392;BME280;42289;53.582;9.714;2022-10-10T08:32:22;100798.97;;;10.56;100.00
56392;BME280;42289;53.582;9.714;2022-10-10T08:34:48;100819.22;;;10.70;100.00
56392;BME280;42289;53.582;9.714;2022-10-10T08:37:15;100820.28;;;10.88;100.00
56392;BME280;42289;53.582;9.714;2022-10-10T08:39:41;100833.75;;;10.98;100.00
56392;BME280;42289;53.582;9.714;2022-10-10T08:42:13;100853.22;;;11.09;100.00
56392;BME280;42289;53.582;9.714;2022-10-10T08:44:44;100848.72;;;11.13;100.00
56392;BME280;42289;53.582;9.714;2022-10-10T08:47:14;100848.72;;;11.13;100.00
56392;BME280;42289;53.582;9.714;2022-10-10T08:49:48;100869.84;;;11.27;100.00
56392;BME280;42289;53.582;9.714;2022-10-10T08:52:27;100855.72;;;11.33;100.00
56392;BME280;42289;53.582;9.714;2022-10-10T08:54:56;100866.66;;;11.41;100.00
56392;BME280;42289;53.582;9.714;2022-10-10T08:57:25;100891.91;;;11.39;100.00
56392;BME280;42289;53.582;9.714;2022-10-10T08:59:55;100889.97;;;11.44;100.00
56392;BME280;42289;53.582;9.714;2022-10-10T09:02:28;100876.69;;;11.51;100.00
56392;BME280;42289;53.582;9.714;2022-10-10T09:04:59;100868.28;;;11.65;100.00
56392;BME280;42289;53.582;9.714;2022-10-10T09:07:35;100898.56;;;11.67;100.00
56392;BME280;42289;53.582;9.714;2022-10-10T09:10:09;100886.22;;;11.72;100.00
56392;BME280;42289;53.582;9.714;2022-10-10T09:12:47;100879.06;;;11.77;100.00
56392;BME280;42289;53.582;9.714;2022-10-10T09:15:20;100893.50;;;11.85;100.00
56392;BME280;42289;53.582;9.714;2022-10-10T09:17:55;100902.69;;;11.93;100.00
56392;BME280;42289;53.582;9.714;2022-10-10T09:20:35;100890.47;;;11.95;100.00
56392;BME280;42289;53.582;9.714;2022-10-10T09:23:10;100919.44;;;12.08;100.00
56392;BME280;42289;53.582;9.714;2022-10-10T09:25:42;100915.53;;;12.19;100.00
56392;BME280;42289;53.582;9.714;2022-10-10T09:28:17;100900.53;;;12.24;100.00
56392;BME280;42289;53.582;9.714;2022-10-10T09:30:46;100896.69;;;12.33;100.00
56392;BME280;42289;53.582;9.714;2022-10-10T09:33:22;100895.06;;;12.30;100.00
56392;BME280;42289;53.582;9.714;2022-10-10T09:35:53;100906.97;;;12.36;100.00
56392;BME280;42289;53.582;9.714;2022-10-10T09:38:29;100880.13;;;12.34;100.00
56392;BME280;42289;53.582;9.714;2022-10-10T09:41:00;100890.97;;;12.43;100.00
56392;BME280;42289;53.582;9.714;2022-10-10T09:43:30;100891.41;;;12.53;100.00
56392;BME280;42289;53.582;9.714;2022-10-10T09:45:56;100899.72;;;12.61;100.00
56392;BME280;42289;53.582;9.714;2022-10-10T09:48:27;100897.75;;;12.67;100.00
56392;BME280;42289;53.582;9.714;2022-10-10T09:50:55;100890.97;;;12.62;100.00
56392;BME280;42289;53.582;9.714;2022-10-10T09:53:22;100885.41;;;12.70;100.00
56392;BME280;42289;53.582;9.714;2022-10-10T09:55:49;100877.72;;;12.67;100.00
56392;BME280;42289;53.582;9.714;2022-10-10T09:58:24;100874.69;;;12.76;100.00
56392;BME280;42289;53.582;9.714;2022-10-10T10:00:52;100880.09;;;12.91;100.00
56392;BME280;42289;53.582;9.714;2022-10-10T10:03:20;100886.88;;;12.95;100.00
56392;BME280;42289;53.582;9.714;2022-10-10T10:05:53;100881.28;;;13.03;100.00
56392;BME280;42289;53.582;9.714;2022-10-10T10:08:25;100891.28;;;13.12;100.00
56392;BME280;42289;53.582;9.714;2022-10-10T10:10:53;100877.38;;;13.11;100.00
56392;BME280;42289;53.582;9.714;2022-10-10T10:13:25;100883.00;;;13.04;100.00
56392;BME280;42289;53.582;9.714;2022-10-10T10:15:58;100882.78;;;13.26;100.00
56392;BME280;42289;53.582;9.714;2022-10-10T10:18:26;100869.19;;;13.19;100.00
56392;BME280;42289;53.582;9.714;2022-10-10T10:21:08;100867.47;;;13.37;100.00
56392;BME280;42289;53.582;9.714;2022-10-10T10:23:41;100870.53;;;13.45;100.00
56392;BME280;42289;53.582;9.714;2022-10-10T10:26:15;100884.63;;;13.43;100.00
56392;BME280;42289;53.582;9.714;2022-10-10T10:28:43;100890.59;;;13.45;100.00
56392;BME280;42289;53.582;9.714;2022-10-10T10:31:15;100889.50;;;13.49;100.00
56392;BME280;42289;53.582;9.714;2022-10-10T10:33:51;100880.13;;;13.62;100.00
56392;BME280;42289;53.582;9.714;2022-10-10T10:36:29;100898.44;;;13.62;100.00
56392;BME280;42289;53.582;9.714;2022-10-10T10:39:10;100892.38;;;13.62;100.00
56392;BME280;42289;53.582;9.714;2022-10-10T10:41:45;100895.91;;;13.61;100.00
56392;BME280;42289;53.582;9.714;2022-10-10T10:44:23;100893.75;;;13.69;100.00
56392;BME280;42289;53.582;9.714;2022-10-10T10:47:01;100888.34;;;13.90;100.00
56392;BME280;42289;53.582;9.714;2022-10-10T10:49:35;100875.53;;;14.19;100.00
56392;BME280;42289;53.582;9.714;2022-10-10T10:52:26;100867.03;;;14.31;100.00
56392;BME280;42289;53.582;9.714;2022-10-10T10:55:11;100866.50;;;14.74;100.00
56392;BME280;42289;53.582;9.714;2022-10-10T10:57:50;100882.59;;;14.98;100.00
56392;BME280;42289;53.582;9.714;2022-10-10T11:00:19;100889.19;;;15.05;100.00
56392;BME280;42289;53.582;9.714;2022-10-10T11:02:53;100882.97;;;15.22;100.00
56392;BME280;42289;53.582;9.714;2022-10-10T11:05:35;100884.97;;;15.33;100.00
56392;BME280;42289;53.582;9.714;2022-10-10T11:08:27;100880.22;;;15.40;100.00
56392;BME280;42289;53.582;9.714;2022-10-10T11:11:12;100894.94;;;15.42;100.00
56392;BME280;42289;53.582;9.714;2022-10-10T11:13:46;100894.06;;;15.58;100.00
56392;BME280;42289;53.582;9.714;2022-10-10T11:16:20;100884.88;;;15.65;100.00
56392;BME280;42289;53.582;9.714;2022-10-10T11:19:03;100868.88;;;16.00;100.00
56392;BME280;42289;53.582;9.714;2022-10-10T11:21:33;100866.72;;;16.21;100.00
56392;BME280;42289;53.582;9.714;2022-10-10T11:24:06;100862.50;;;16.33;100.00
56392;BME280;42289;53.582;9.714;2022-10-10T11:26:39;100877.78;;;16.26;100.00
56392;BME280;42289;53.582;9.714;2022-10-10T11:29:12;100879.47;;;16.13;100.00
56392;BME280;42289;53.582;9.714;2022-10-10T11:31:44;100910.78;;;15.55;100.00
56392;BME280;42289;53.582;9.714;2022-10-10T11:34:18;100914.44;;;15.53;100.00
56392;BME280;42289;53.582;9.714;2022-10-10T11:36:47;100914.00;;;15.60;100.00
56392;BME280;42289;53.582;9.714;2022-10-10T11:39:17;100919.53;;;15.70;100.00
56392;BME280;42289;53.582;9.714;2022-10-10T11:41:50;100910.56;;;15.74;100.00
56392;BME280;42289;53.582;9.714;2022-10-10T11:44:23;100895.72;;;15.89;100.00
56392;BME280;42289;53.582;9.714;2022-10-10T11:46:57;100895.59;;;15.76;100.00
56392;BME280;42289;53.582;9.714;2022-10-10T11:49:30;100903.47;;;15.76;100.00
56392;BME280;42289;53.582;9.714;2022-10-10T11:52:12;100901.25;;;15.85;100.00
56392;BME280;42289;53.582;9.714;2022-10-10T11:54:46;100897.53;;;15.89;100.00
56392;BME280;42289;53.582;9.714;2022-10-10T11:57:19;100907.31;;;15.55;100.00
56392;BME280;42289;53.582;9.714;2022-10-10T11:59:49;100906.91;;;15.46;100.00
56392;BME280;42289;53.582;9.714;2022-10-10T12:02:20;100906.38;;;15.41;100.00
56392;BME280;42289;53.582;9.714;2022-10-10T12:04:49;100907.09;;;15.43;100.00
56392;BME280;42289;53.582;9.714;2022-10-10T12:07:20;100906.78;;;15.34;100.00
56392;BME280;42289;53.582;9.714;2022-10-10T12:09:51;100896.03;;;15.38;100.00
56392;BME280;42289;53.582;9.714;2022-10-10T12:12:26;100883.91;;;15.37;100.00
56392;BME280;42289;53.582;9.714;2022-10-10T12:14:57;100882.38;;;15.33;100.00
56392;BME280;42289;53.582;9.714;2022-10-10T12:17:27;100873.00;;;15.29;100.00
56392;BME280;42289;53.582;9.714;2022-10-10T12:22:43;100863.06;;;15.50;100.00
56392;BME280;42289;53.582;9.714;2022-10-10T12:25:23;100864.03;;;15.33;100.00
56392;BME280;42289;53.582;9.714;2022-10-10T12:28:22;100862.28;;;15.34;100.00
56392;BME280;42289;53.582;9.714;2022-10-10T12:34:11;100852.03;;;15.29;100.00
56392;BME280;42289;53.582;9.714;2022-10-10T12:36:57;100851.31;;;15.27;100.00
56392;BME280;42289;53.582;9.714;2022-10-10T12:39:36;100852.16;;;15.11;100.00
56392;BME280;42289;53.582;9.714;2022-10-10T12:42:28;100846.38;;;15.06;100.00
56392;BME280;42289;53.582;9.714;2022-10-10T12:44:57;100847.41;;;15.04;100.00
56392;BME280;42289;53.582;9.714;2022-10-10T12:47:30;100836.41;;;15.13;100.00
56392;BME280;42289;53.582;9.714;2022-10-10T12:50:00;100832.19;;;15.10;100.00
56392;BME280;42289;53.582;9.714;2022-10-10T12:52:29;100831.59;;;15.05;100.00
56392;BME280;42289;53.582;9.714;2022-10-10T12:55:02;100819.69;;;15.00;100.00
56392;BME280;42289;53.582;9.714;2022-10-10T12:57:32;100802.00;;;14.73;100.00
56392;BME280;42289;53.582;9.714;2022-10-10T13:00:06;100800.50;;;14.69;100.00
56392;BME280;42289;53.582;9.714;2022-10-10T13:02:41;100817.41;;;14.61;100.00
56392;BME280;42289;53.582;9.714;2022-10-10T13:05:09;100810.44;;;14.62;100.00
56392;BME280;42289;53.582;9.714;2022-10-10T13:07:38;100804.72;;;14.71;100.00